sensor_id;sensor_type;location;lat;lon;timestamp;P1;durP1;ratioP1;P2;durP2;ratioP2
20758;SDS011;10539;53.686;9.158;2022-08-19T00:01:27;7.40;;;4.70;;
20758;SDS011;10539;53.686;9.158;2022-08-19T00:03:58;8.77;;;5.00;;
20758;SDS011;10539;53.686;9.158;2022-08-19T00:06:26;7.87;;;4.90;;
20758;SDS011;10539;53.686;9.158;2022-08-19T00:08:52;6.13;;;5.13;;
20758;SDS011;10539;53.686;9.158;2022-08-19T00:11:18;6.83;;;4.77;;
20758;SDS011;10539;53.686;9.158;2022-08-19T00:13:44;6.73;;;4.37;;
20758;SDS011;10539;53.686;9.158;2022-08-19T00:16:13;5.87;;;4.30;;
20758;SDS011;10539;53.686;9.158;2022-08-19T00:18:39;6.77;;;3.60;;
20758;SDS011;10539;53.686;9.158;2022-08-19T00:21:05;9.30;;;3.53;;
20758;SDS011;10539;53.686;9.158;2022-08-19T00:23:34;7.93;;;3.70;;
20758;SDS011;10539;53.686;9.158;2022-08-19T00:26:02;6.40;;;3.30;;
20758;SDS011;10539;53.686;9.158;2022-08-19T00:28:29;7.77;;;3.80;;
20758;SDS011;10539;53.686;9.158;2022-08-19T00:30:55;7.77;;;3.37;;
20758;SDS011;10539;53.686;9.158;2022-08-19T00:33:21;6.90;;;2.90;;
20758;SDS011;10539;53.686;9.158;2022-08-19T00:35:47;7.13;;;3.10;;
20758;SDS011;10539;53.686;9.158;2022-08-19T00:38:12;5.13;;;3.10;;
20758;SDS011;10539;53.686;9.158;2022-08-19T00:40:38;8.00;;;2.93;;
20758;SDS011;10539;53.686;9.158;2022-08-19T00:43:08;3.50;;;2.57;;
20758;SDS011;10539;53.686;9.158;2022-08-19T00:45:35;4.87;;;3.20;;
20758;SDS011;10539;53.686;9.158;2022-08-19T00:48:01;11.97;;;3.40;;
20758;SDS011;10539;53.686;9.158;2022-08-19T00:50:29;4.27;;;2.90;;
20758;SDS011;10539;53.686;9.158;2022-08-19T00:52:55;4.93;;;3.03;;
20758;SDS011;10539;53.686;9.158;2022-08-19T00:55:25;3.70;;;2.80;;
20758;SDS011;10539;53.686;9.158;2022-08-19T00:58:01;4.80;;;3.00;;
20758;SDS011;10539;53.686;9.158;2022-08-19T01:00:32;3.90;;;2.90;;
20758;SDS011;10539;53.686;9.158;2022-08-19T01:03:09;6.87;;;3.30;;
20758;SDS011;10539;53.686;9.158;2022-08-19T01:05:37;3.93;;;2.83;;
20758;SDS011;10539;53.686;9.158;2022-08-19T01:08:06;5.40;;;2.87;;
20758;SDS011;10539;53.686;9.158;2022-08-19T01:10:35;7.00;;;3.37;;
20758;SDS011;10539;53.686;9.158;2022-08-19T01:13:05;6.27;;;2.90;;
20758;SDS011;10539;53.686;9.158;2022-08-19T01:15:34;5.27;;;2.53;;
20758;SDS011;10539;53.686;9.158;2022-08-19T01:18:06;5.80;;;2.70;;
20758;SDS011;10539;53.686;9.158;2022-08-19T01:20:33;5.87;;;2.60;;
20758;SDS011;10539;53.686;9.158;2022-08-19T01:22:59;5.40;;;2.80;;
20758;SDS011;10539;53.686;9.158;2022-08-19T01:25:35;6.10;;;2.90;;
20758;SDS011;10539;53.686;9.158;2022-08-19T01:28:15;5.13;;;2.73;;
20758;SDS011;10539;53.686;9.158;2022-08-19T01:30:43;4.73;;;2.97;;
20758;SDS011;10539;53.686;9.158;2022-08-19T01:33:09;3.57;;;2.63;;
20758;SDS011;10539;53.686;9.158;2022-08-19T01:35:36;6.37;;;3.20;;
20758;SDS011;10539;53.686;9.158;2022-08-19T01:38:03;4.60;;;2.63;;
20758;SDS011;10539;53.686;9.158;2022-08-19T01:40:36;4.77;;;2.80;;
20758;SDS011;10539;53.686;9.158;2022-08-19T01:43:04;5.23;;;2.60;;
20758;SDS011;10539;53.686;9.158;2022-08-19T01:45:31;8.67;;;3.80;;
20758;SDS011;10539;53.686;9.158;2022-08-19T01:47:58;4.97;;;2.47;;
20758;SDS011;10539;53.686;9.158;2022-08-19T01:50:24;4.93;;;2.90;;
20758;SDS011;10539;53.686;9.158;2022-08-19T01:52:51;4.03;;;2.63;;
20758;SDS011;10539;53.686;9.158;2022-08-19T01:55:18;6.20;;;2.80;;
20758;SDS011;10539;53.686;9.158;2022-08-19T01:57:47;7.33;;;3.10;;
20758;SDS011;10539;53.686;9.158;2022-08-19T02:00:17;4.77;;;2.90;;
20758;SDS011;10539;53.686;9.158;2022-08-19T02:02:46;4.63;;;3.10;;
20758;SDS011;10539;53.686;9.158;2022-08-19T02:05:13;5.73;;;3.07;;
20758;SDS011;10539;53.686;9.158;2022-08-19T02:07:39;5.53;;;3.07;;
20758;SDS011;10539;53.686;9.158;2022-08-19T02:10:07;5.00;;;3.13;;
20758;SDS011;10539;53.686;9.158;2022-08-19T02:12:37;4.50;;;3.10;;
20758;SDS011;10539;53.686;9.158;2022-08-19T02:15:03;4.90;;;3.80;;
20758;SDS011;10539;53.686;9.158;2022-08-19T02:17:37;5.73;;;3.63;;
20758;SDS011;10539;53.686;9.158;2022-08-19T02:20:04;6.03;;;3.47;;
20758;SDS011;10539;53.686;9.158;2022-08-19T02:22:31;6.20;;;3.80;;
20758;SDS011;10539;53.686;9.158;2022-08-19T02:24:56;6.90;;;3.40;;
20758;SDS011;10539;53.686;9.158;2022-08-19T02:27:22;6.30;;;3.37;;
20758;SDS011;10539;53.686;9.158;2022-08-19T02:29:48;7.43;;;3.87;;
20758;SDS011;10539;53.686;9.158;2022-08-19T02:32:16;7.60;;;3.53;;
20758;SDS011;10539;53.686;9.158;2022-08-19T02:34:44;5.00;;;3.37;;
20758;SDS011;10539;53.686;9.158;2022-08-19T02:37:10;7.47;;;4.13;;
20758;SDS011;10539;53.686;9.158;2022-08-19T02:39:56;5.97;;;3.90;;
20758;SDS011;10539;53.686;9.158;2022-08-19T02:42:22;5.57;;;3.93;;
20758;SDS011;10539;53.686;9.158;2022-08-19T02:44:48;6.60;;;4.30;;
20758;SDS011;10539;53.686;9.158;2022-08-19T02:47:14;6.07;;;3.93;;
20758;SDS011;10539;53.686;9.158;2022-08-19T02:49:40;6.87;;;4.20;;
20758;SDS011;10539;53.686;9.158;2022-08-19T02:52:06;6.10;;;4.17;;
20758;SDS011;10539;53.686;9.158;2022-08-19T02:54:32;7.73;;;4.30;;
20758;SDS011;10539;53.686;9.158;2022-08-19T02:56:58;7.67;;;4.13;;
20758;SDS011;10539;53.686;9.158;2022-08-19T02:59:23;6.93;;;4.47;;
20758;SDS011;10539;53.686;9.158;2022-08-19T03:01:50;8.33;;;4.30;;
20758;SDS011;10539;53.686;9.158;2022-08-19T03:04:16;6.40;;;3.70;;
20758;SDS011;10539;53.686;9.158;2022-08-19T03:06:42;10.23;;;4.33;;
20758;SDS011;10539;53.686;9.158;2022-08-19T03:09:10;5.37;;;3.70;;
20758;SDS011;10539;53.686;9.158;2022-08-19T03:11:36;4.83;;;3.70;;
20758;SDS011;10539;53.686;9.158;2022-08-19T03:14:03;7.03;;;3.93;;
20758;SDS011;10539;53.686;9.158;2022-08-19T03:16:33;5.63;;;4.20;;
20758;SDS011;10539;53.686;9.158;2022-08-19T03:19:00;5.60;;;3.87;;
20758;SDS011;10539;53.686;9.158;2022-08-19T03:21:28;5.87;;;3.80;;
20758;SDS011;10539;53.686;9.158;2022-08-19T03:23:56;7.33;;;3.90;;
20758;SDS011;10539;53.686;9.158;2022-08-19T03:26:23;6.43;;;4.00;;
20758;SDS011;10539;53.686;9.158;2022-08-19T03:28:49;7.67;;;4.23;;
20758;SDS011;10539;53.686;9.158;2022-08-19T03:31:16;11.97;;;4.30;;
20758;SDS011;10539;53.686;9.158;2022-08-19T03:33:44;6.13;;;3.90;;
20758;SDS011;10539;53.686;9.158;2022-08-19T03:36:15;5.70;;;3.80;;
20758;SDS011;10539;53.686;9.158;2022-08-19T03:39:09;4.50;;;3.30;;
20758;SDS011;10539;53.686;9.158;2022-08-19T03:41:38;5.87;;;3.70;;
20758;SDS011;10539;53.686;9.158;2022-08-19T03:44:06;4.93;;;3.83;;
20758;SDS011;10539;53.686;9.158;2022-08-19T03:46:33;4.97;;;3.87;;
20758;SDS011;10539;53.686;9.158;2022-08-19T03:49:02;5.93;;;3.90;;
20758;SDS011;10539;53.686;9.158;2022-08-19T03:51:33;6.90;;;3.70;;
20758;SDS011;10539;53.686;9.158;2022-08-19T03:54:03;8.63;;;3.87;;
20758;SDS011;10539;53.686;9.158;2022-08-19T03:56:30;8.67;;;3.77;;
20758;SDS011;10539;53.686;9.158;2022-08-19T03:58:58;4.80;;;3.43;;
20758;SDS011;10539;53.686;9.158;2022-08-19T04:01:25;6.23;;;3.70;;
20758;SDS011;10539;53.686;9.158;2022-08-19T04:03:53;7.83;;;3.67;;
20758;SDS011;10539;53.686;9.158;2022-08-19T04:06:20;8.73;;;3.90;;
20758;SDS011;10539;53.686;9.158;2022-08-19T04:08:49;5.13;;;3.83;;
20758;SDS011;10539;53.686;9.158;2022-08-19T04:11:18;5.73;;;4.53;;
20758;SDS011;10539;53.686;9.158;2022-08-19T04:13:46;7.30;;;4.00;;
20758;SDS011;10539;53.686;9.158;2022-08-19T04:16:13;8.47;;;4.77;;
20758;SDS011;10539;53.686;9.158;2022-08-19T04:18:39;6.73;;;4.43;;
20758;SDS011;10539;53.686;9.158;2022-08-19T04:21:06;8.00;;;4.87;;
20758;SDS011;10539;53.686;9.158;2022-08-19T04:23:33;7.97;;;4.20;;
20758;SDS011;10539;53.686;9.158;2022-08-19T04:26:01;10.23;;;3.93;;
20758;SDS011;10539;53.686;9.158;2022-08-19T04:28:27;7.70;;;4.27;;
20758;SDS011;10539;53.686;9.158;2022-08-19T04:30:54;6.60;;;4.30;;
20758;SDS011;10539;53.686;9.158;2022-08-19T04:33:22;6.63;;;4.70;;
20758;SDS011;10539;53.686;9.158;2022-08-19T04:35:50;6.53;;;4.40;;
20758;SDS011;10539;53.686;9.158;2022-08-19T04:38:18;7.43;;;4.93;;
20758;SDS011;10539;53.686;9.158;2022-08-19T04:40:46;8.00;;;5.03;;
20758;SDS011;10539;53.686;9.158;2022-08-19T04:43:32;6.77;;;5.47;;
20758;SDS011;10539;53.686;9.158;2022-08-19T04:46:06;6.43;;;5.07;;
20758;SDS011;10539;53.686;9.158;2022-08-19T04:48:33;8.07;;;4.83;;
20758;SDS011;10539;53.686;9.158;2022-08-19T04:50:59;8.37;;;5.03;;
20758;SDS011;10539;53.686;9.158;2022-08-19T04:55:56;9.60;;;5.40;;
20758;SDS011;10539;53.686;9.158;2022-08-19T04:58:24;8.10;;;5.20;;
20758;SDS011;10539;53.686;9.158;2022-08-19T05:00:52;7.63;;;5.67;;
20758;SDS011;10539;53.686;9.158;2022-08-19T05:03:18;6.60;;;5.03;;
20758;SDS011;10539;53.686;9.158;2022-08-19T05:05:44;7.33;;;5.40;;
20758;SDS011;10539;53.686;9.158;2022-08-19T05:08:13;7.60;;;4.80;;
20758;SDS011;10539;53.686;9.158;2022-08-19T05:10:45;8.27;;;5.40;;
20758;SDS011;10539;53.686;9.158;2022-08-19T05:13:12;9.57;;;5.30;;
20758;SDS011;10539;53.686;9.158;2022-08-19T05:15:38;8.10;;;5.20;;
20758;SDS011;10539;53.686;9.158;2022-08-19T05:18:04;5.83;;;4.93;;
20758;SDS011;10539;53.686;9.158;2022-08-19T05:20:48;7.23;;;5.13;;
20758;SDS011;10539;53.686;9.158;2022-08-19T05:23:33;7.17;;;4.67;;
20758;SDS011;10539;53.686;9.158;2022-08-19T05:26:01;8.47;;;4.70;;
20758;SDS011;10539;53.686;9.158;2022-08-19T05:28:30;6.30;;;4.80;;
20758;SDS011;10539;53.686;9.158;2022-08-19T05:31:03;7.17;;;5.23;;
20758;SDS011;10539;53.686;9.158;2022-08-19T05:33:29;7.37;;;4.50;;
20758;SDS011;10539;53.686;9.158;2022-08-19T05:35:55;8.00;;;5.23;;
20758;SDS011;10539;53.686;9.158;2022-08-19T05:38:21;6.63;;;4.87;;
20758;SDS011;10539;53.686;9.158;2022-08-19T05:40:47;8.20;;;4.57;;
20758;SDS011;10539;53.686;9.158;2022-08-19T05:43:14;7.93;;;4.70;;
20758;SDS011;10539;53.686;9.158;2022-08-19T05:45:41;7.70;;;4.80;;
20758;SDS011;10539;53.686;9.158;2022-08-19T05:48:16;5.63;;;4.53;;
20758;SDS011;10539;53.686;9.158;2022-08-19T05:50:47;6.30;;;4.33;;
20758;SDS011;10539;53.686;9.158;2022-08-19T05:53:16;6.70;;;4.97;;
20758;SDS011;10539;53.686;9.158;2022-08-19T05:55:44;8.47;;;5.03;;
20758;SDS011;10539;53.686;9.158;2022-08-19T05:58:10;6.17;;;4.33;;
20758;SDS011;10539;53.686;9.158;2022-08-19T06:00:36;5.40;;;4.03;;
20758;SDS011;10539;53.686;9.158;2022-08-19T06:03:03;9.03;;;4.43;;
20758;SDS011;10539;53.686;9.158;2022-08-19T06:05:29;6.67;;;4.40;;
20758;SDS011;10539;53.686;9.158;2022-08-19T06:07:55;5.13;;;3.90;;
20758;SDS011;10539;53.686;9.158;2022-08-19T06:10:21;6.03;;;4.47;;
20758;SDS011;10539;53.686;9.158;2022-08-19T06:12:48;4.47;;;3.47;;
20758;SDS011;10539;53.686;9.158;2022-08-19T06:15:14;5.27;;;3.93;;
20758;SDS011;10539;53.686;9.158;2022-08-19T06:17:41;5.30;;;3.67;;
20758;SDS011;10539;53.686;9.158;2022-08-19T06:20:11;5.90;;;3.97;;
20758;SDS011;10539;53.686;9.158;2022-08-19T06:22:42;4.40;;;3.60;;
20758;SDS011;10539;53.686;9.158;2022-08-19T06:25:14;5.20;;;3.77;;
20758;SDS011;10539;53.686;9.158;2022-08-19T06:27:42;6.37;;;3.63;;
20758;SDS011;10539;53.686;9.158;2022-08-19T06:30:09;6.27;;;3.87;;
20758;SDS011;10539;53.686;9.158;2022-08-19T06:32:39;5.97;;;3.67;;
20758;SDS011;10539;53.686;9.158;2022-08-19T06:35:05;5.07;;;3.70;;
20758;SDS011;10539;53.686;9.158;2022-08-19T06:37:33;6.03;;;3.87;;
20758;SDS011;10539;53.686;9.158;2022-08-19T06:39:59;5.83;;;3.57;;
20758;SDS011;10539;53.686;9.158;2022-08-19T06:42:25;6.60;;;3.20;;
20758;SDS011;10539;53.686;9.158;2022-08-19T06:44:51;6.33;;;3.57;;
20758;SDS011;10539;53.686;9.158;2022-08-19T06:47:20;5.77;;;3.83;;
20758;SDS011;10539;53.686;9.158;2022-08-19T06:49:46;5.70;;;3.60;;
20758;SDS011;10539;53.686;9.158;2022-08-19T06:52:12;4.77;;;3.80;;
20758;SDS011;10539;53.686;9.158;2022-08-19T06:54:39;9.10;;;5.17;;
20758;SDS011;10539;53.686;9.158;2022-08-19T06:57:09;6.10;;;4.07;;
20758;SDS011;10539;53.686;9.158;2022-08-19T06:59:43;5.47;;;3.63;;
20758;SDS011;10539;53.686;9.158;2022-08-19T07:02:19;8.13;;;4.03;;
20758;SDS011;10539;53.686;9.158;2022-08-19T07:04:45;7.53;;;3.40;;
20758;SDS011;10539;53.686;9.158;2022-08-19T07:07:13;7.97;;;3.53;;
20758;SDS011;10539;53.686;9.158;2022-08-19T07:09:42;8.40;;;3.67;;
20758;SDS011;10539;53.686;9.158;2022-08-19T07:12:09;6.23;;;3.47;;
20758;SDS011;10539;53.686;9.158;2022-08-19T07:14:40;6.80;;;4.33;;
20758;SDS011;10539;53.686;9.158;2022-08-19T07:17:10;5.70;;;3.67;;
20758;SDS011;10539;53.686;9.158;2022-08-19T07:19:37;6.03;;;3.90;;
20758;SDS011;10539;53.686;9.158;2022-08-19T07:22:04;7.93;;;3.47;;
20758;SDS011;10539;53.686;9.158;2022-08-19T07:24:34;5.47;;;3.67;;
20758;SDS011;10539;53.686;9.158;2022-08-19T07:27:02;7.30;;;3.67;;
20758;SDS011;10539;53.686;9.158;2022-08-19T07:29:30;8.53;;;3.87;;
20758;SDS011;10539;53.686;9.158;2022-08-19T07:32:02;7.93;;;4.23;;
20758;SDS011;10539;53.686;9.158;2022-08-19T07:34:37;7.27;;;4.10;;
20758;SDS011;10539;53.686;9.158;2022-08-19T07:37:06;6.70;;;4.80;;
20758;SDS011;10539;53.686;9.158;2022-08-19T07:39:33;6.53;;;3.90;;
20758;SDS011;10539;53.686;9.158;2022-08-19T07:42:01;8.67;;;4.77;;
20758;SDS011;10539;53.686;9.158;2022-08-19T07:44:33;7.57;;;5.40;;
20758;SDS011;10539;53.686;9.158;2022-08-19T07:47:05;9.40;;;5.50;;
20758;SDS011;10539;53.686;9.158;2022-08-19T07:49:32;10.10;;;5.23;;
20758;SDS011;10539;53.686;9.158;2022-08-19T07:51:59;9.97;;;6.07;;
20758;SDS011;10539;53.686;9.158;2022-08-19T07:54:30;11.33;;;6.33;;
20758;SDS011;10539;53.686;9.158;2022-08-19T07:56:59;9.50;;;6.53;;
20758;SDS011;10539;53.686;9.158;2022-08-19T07:59:25;10.40;;;6.70;;
20758;SDS011;10539;53.686;9.158;2022-08-19T08:01:56;10.80;;;7.50;;
20758;SDS011;10539;53.686;9.158;2022-08-19T08:04:22;9.43;;;6.97;;
20758;SDS011;10539;53.686;9.158;2022-08-19T08:07:07;12.77;;;7.73;;
20758;SDS011;10539;53.686;9.158;2022-08-19T08:09:52;10.33;;;6.60;;
20758;SDS011;10539;53.686;9.158;2022-08-19T08:12:22;9.73;;;6.63;;
20758;SDS011;10539;53.686;9.158;2022-08-19T08:14:54;12.13;;;7.77;;
20758;SDS011;10539;53.686;9.158;2022-08-19T08:17:22;10.47;;;7.43;;
20758;SDS011;10539;53.686;9.158;2022-08-19T08:19:50;13.23;;;6.63;;
20758;SDS011;10539;53.686;9.158;2022-08-19T08:22:17;10.20;;;6.57;;
20758;SDS011;10539;53.686;9.158;2022-08-19T08:25:14;8.17;;;5.97;;
20758;SDS011;10539;53.686;9.158;2022-08-19T08:27:45;11.57;;;6.23;;
20758;SDS011;10539;53.686;9.158;2022-08-19T08:30:19;8.57;;;5.87;;
20758;SDS011;10539;53.686;9.158;2022-08-19T08:32:47;12.10;;;6.13;;
20758;SDS011;10539;53.686;9.158;2022-08-19T08:35:15;8.97;;;5.97;;
20758;SDS011;10539;53.686;9.158;2022-08-19T08:37:45;8.70;;;6.40;;
20758;SDS011;10539;53.686;9.158;2022-08-19T08:40:22;12.67;;;6.43;;
20758;SDS011;10539;53.686;9.158;2022-08-19T08:43:18;9.07;;;5.73;;
20758;SDS011;10539;53.686;9.158;2022-08-19T08:46:01;6.27;;;5.37;;
20758;SDS011;10539;53.686;9.158;2022-08-19T08:48:47;10.10;;;6.33;;
20758;SDS011;10539;53.686;9.158;2022-08-19T08:51:29;9.00;;;6.13;;
20758;SDS011;10539;53.686;9.158;2022-08-19T08:54:03;12.97;;;6.60;;
20758;SDS011;10539;53.686;9.158;2022-08-19T08:56:34;9.40;;;6.00;;
20758;SDS011;10539;53.686;9.158;2022-08-19T08:59:10;10.23;;;5.18;;
20758;SDS011;10539;53.686;9.158;2022-08-19T09:01:44;8.17;;;5.43;;
20758;SDS011;10539;53.686;9.158;2022-08-19T09:04:10;8.68;;;5.32;;
20758;SDS011;10539;53.686;9.158;2022-08-19T09:06:43;7.63;;;5.82;;
20758;SDS011;10539;53.686;9.158;2022-08-19T09:09:40;8.15;;;5.57;;
20758;SDS011;10539;53.686;9.158;2022-08-19T09:12:24;9.90;;;4.70;;
20758;SDS011;10539;53.686;9.158;2022-08-19T09:15:00;8.55;;;5.20;;
20758;SDS011;10539;53.686;9.158;2022-08-19T09:17:30;9.10;;;5.40;;
20758;SDS011;10539;53.686;9.158;2022-08-19T09:20:06;8.32;;;5.85;;
20758;SDS011;10539;53.686;9.158;2022-08-19T09:22:40;9.90;;;5.13;;
20758;SDS011;10539;53.686;9.158;2022-08-19T09:25:09;7.78;;;4.88;;
20758;SDS011;10539;53.686;9.158;2022-08-19T09:27:37;8.80;;;4.63;;
20758;SDS011;10539;53.686;9.158;2022-08-19T09:30:05;7.85;;;5.15;;
20758;SDS011;10539;53.686;9.158;2022-08-19T09:32:39;8.82;;;5.65;;
20758;SDS011;10539;53.686;9.158;2022-08-19T09:35:07;7.35;;;4.95;;
20758;SDS011;10539;53.686;9.158;2022-08-19T09:37:39;7.70;;;5.22;;
20758;SDS011;10539;53.686;9.158;2022-08-19T09:40:06;7.80;;;5.28;;
20758;SDS011;10539;53.686;9.158;2022-08-19T09:42:35;8.50;;;6.10;;
20758;SDS011;10539;53.686;9.158;2022-08-19T09:45:01;13.32;;;5.65;;
20758;SDS011;10539;53.686;9.158;2022-08-19T09:47:28;10.45;;;6.10;;
20758;SDS011;10539;53.686;9.158;2022-08-19T09:49:54;10.38;;;6.53;;
20758;SDS011;10539;53.686;9.158;2022-08-19T09:52:20;7.22;;;6.10;;
20758;SDS011;10539;53.686;9.158;2022-08-19T09:54:51;9.00;;;6.00;;
20758;SDS011;10539;53.686;9.158;2022-08-19T09:57:17;6.82;;;5.10;;
20758;SDS011;10539;53.686;9.158;2022-08-19T09:59:46;10.30;;;6.15;;
20758;SDS011;10539;53.686;9.158;2022-08-19T10:02:13;7.78;;;5.57;;
20758;SDS011;10539;53.686;9.158;2022-08-19T10:04:38;7.20;;;4.72;;
20758;SDS011;10539;53.686;9.158;2022-08-19T10:07:22;6.78;;;4.78;;
20758;SDS011;10539;53.686;9.158;2022-08-19T10:09:51;7.53;;;4.80;;
20758;SDS011;10539;53.686;9.158;2022-08-19T10:12:17;6.93;;;5.50;;
20758;SDS011;10539;53.686;9.158;2022-08-19T10:14:43;7.83;;;5.10;;
20758;SDS011;10539;53.686;9.158;2022-08-19T10:17:10;6.95;;;5.30;;
20758;SDS011;10539;53.686;9.158;2022-08-19T10:19:39;7.38;;;4.72;;
20758;SDS011;10539;53.686;9.158;2022-08-19T10:22:08;7.32;;;5.57;;
20758;SDS011;10539;53.686;9.158;2022-08-19T10:24:38;8.27;;;5.43;;
20758;SDS011;10539;53.686;9.158;2022-08-19T10:27:05;7.90;;;5.20;;
20758;SDS011;10539;53.686;9.158;2022-08-19T10:29:31;8.00;;;5.43;;
20758;SDS011;10539;53.686;9.158;2022-08-19T10:32:03;7.22;;;5.25;;
20758;SDS011;10539;53.686;9.158;2022-08-19T10:34:36;7.22;;;4.97;;
20758;SDS011;10539;53.686;9.158;2022-08-19T10:37:04;6.75;;;4.57;;
20758;SDS011;10539;53.686;9.158;2022-08-19T10:39:34;7.53;;;4.13;;
20758;SDS011;10539;53.686;9.158;2022-08-19T10:42:06;6.50;;;4.40;;
20758;SDS011;10539;53.686;9.158;2022-08-19T10:44:35;6.28;;;4.68;;
20758;SDS011;10539;53.686;9.158;2022-08-19T10:47:03;7.22;;;5.40;;
20758;SDS011;10539;53.686;9.158;2022-08-19T10:49:29;7.10;;;5.20;;
20758;SDS011;10539;53.686;9.158;2022-08-19T10:51:56;8.18;;;4.88;;
20758;SDS011;10539;53.686;9.158;2022-08-19T10:54:44;6.10;;;5.03;;
20758;SDS011;10539;53.686;9.158;2022-08-19T10:57:31;6.68;;;4.57;;
20758;SDS011;10539;53.686;9.158;2022-08-19T10:59:56;6.10;;;4.35;;
20758;SDS011;10539;53.686;9.158;2022-08-19T11:02:22;5.60;;;4.00;;
20758;SDS011;10539;53.686;9.158;2022-08-19T11:04:51;6.13;;;3.65;;
20758;SDS011;10539;53.686;9.158;2022-08-19T11:07:19;5.47;;;3.45;;
20758;SDS011;10539;53.686;9.158;2022-08-19T11:09:52;4.97;;;3.55;;
20758;SDS011;10539;53.686;9.158;2022-08-19T11:12:17;4.50;;;3.50;;
20758;SDS011;10539;53.686;9.158;2022-08-19T11:14:46;4.43;;;3.30;;
20758;SDS011;10539;53.686;9.158;2022-08-19T11:17:14;4.07;;;3.42;;
20758;SDS011;10539;53.686;9.158;2022-08-19T11:19:44;5.15;;;3.47;;
20758;SDS011;10539;53.686;9.158;2022-08-19T11:22:10;4.88;;;3.50;;
20758;SDS011;10539;53.686;9.158;2022-08-19T11:24:36;4.88;;;3.75;;
20758;SDS011;10539;53.686;9.158;2022-08-19T11:27:04;6.85;;;4.25;;
20758;SDS011;10539;53.686;9.158;2022-08-19T11:29:39;5.60;;;5.00;;
20758;SDS011;10539;53.686;9.158;2022-08-19T11:32:10;5.43;;;4.30;;
20758;SDS011;10539;53.686;9.158;2022-08-19T11:34:36;6.00;;;4.15;;
20758;SDS011;10539;53.686;9.158;2022-08-19T11:37:08;7.10;;;4.07;;
20758;SDS011;10539;53.686;9.158;2022-08-19T11:39:34;6.50;;;4.15;;
20758;SDS011;10539;53.686;9.158;2022-08-19T11:42:02;6.95;;;4.18;;
20758;SDS011;10539;53.686;9.158;2022-08-19T11:44:49;5.10;;;3.75;;
20758;SDS011;10539;53.686;9.158;2022-08-19T11:47:19;7.00;;;4.40;;
20758;SDS011;10539;53.686;9.158;2022-08-19T11:49:45;4.57;;;3.75;;
20758;SDS011;10539;53.686;9.158;2022-08-19T11:52:14;6.15;;;4.07;;
20758;SDS011;10539;53.686;9.158;2022-08-19T11:54:40;6.70;;;3.90;;
20758;SDS011;10539;53.686;9.158;2022-08-19T11:57:05;7.00;;;4.55;;
20758;SDS011;10539;53.686;9.158;2022-08-19T11:59:31;7.85;;;4.00;;
20758;SDS011;10539;53.686;9.158;2022-08-19T12:01:57;6.03;;;4.35;;
20758;SDS011;10539;53.686;9.158;2022-08-19T12:04:23;5.35;;;4.25;;
20758;SDS011;10539;53.686;9.158;2022-08-19T12:06:49;6.60;;;4.25;;
20758;SDS011;10539;53.686;9.158;2022-08-19T12:09:17;4.60;;;4.15;;
20758;SDS011;10539;53.686;9.158;2022-08-19T12:11:43;6.55;;;4.85;;
20758;SDS011;10539;53.686;9.158;2022-08-19T12:14:10;7.65;;;4.78;;
20758;SDS011;10539;53.686;9.158;2022-08-19T12:16:39;5.95;;;4.90;;
20758;SDS011;10539;53.686;9.158;2022-08-19T12:19:09;6.38;;;4.80;;
20758;SDS011;10539;53.686;9.158;2022-08-19T12:21:37;8.55;;;5.10;;
20758;SDS011;10539;53.686;9.158;2022-08-19T12:24:04;7.78;;;4.70;;
20758;SDS011;10539;53.686;9.158;2022-08-19T12:26:31;6.68;;;4.20;;
20758;SDS011;10539;53.686;9.158;2022-08-19T12:28:57;7.10;;;4.88;;
20758;SDS011;10539;53.686;9.158;2022-08-19T12:31:24;5.45;;;4.15;;
20758;SDS011;10539;53.686;9.158;2022-08-19T12:33:53;5.95;;;4.40;;
20758;SDS011;10539;53.686;9.158;2022-08-19T12:36:19;6.20;;;4.85;;
20758;SDS011;10539;53.686;9.158;2022-08-19T12:38:48;7.53;;;4.63;;
20758;SDS011;10539;53.686;9.158;2022-08-19T12:41:17;6.50;;;4.60;;
20758;SDS011;10539;53.686;9.158;2022-08-19T12:43:43;5.35;;;4.28;;
20758;SDS011;10539;53.686;9.158;2022-08-19T12:46:10;6.07;;;4.30;;
20758;SDS011;10539;53.686;9.158;2022-08-19T12:48:37;6.45;;;4.05;;
20758;SDS011;10539;53.686;9.158;2022-08-19T12:51:07;5.50;;;4.53;;
20758;SDS011;10539;53.686;9.158;2022-08-19T12:53:37;6.07;;;4.72;;
20758;SDS011;10539;53.686;9.158;2022-08-19T12:56:10;7.63;;;4.82;;
20758;SDS011;10539;53.686;9.158;2022-08-19T12:58:39;6.07;;;5.30;;
20758;SDS011;10539;53.686;9.158;2022-08-19T13:01:11;6.32;;;5.32;;
20758;SDS011;10539;53.686;9.158;2022-08-19T13:03:41;6.78;;;5.28;;
20758;SDS011;10539;53.686;9.158;2022-08-19T13:06:10;6.53;;;5.40;;
20758;SDS011;10539;53.686;9.158;2022-08-19T13:08:36;8.25;;;5.80;;
20758;SDS011;10539;53.686;9.158;2022-08-19T13:11:13;6.38;;;4.80;;
20758;SDS011;10539;53.686;9.158;2022-08-19T13:13:42;6.55;;;4.40;;
20758;SDS011;10539;53.686;9.158;2022-08-19T13:16:10;5.90;;;4.53;;
20758;SDS011;10539;53.686;9.158;2022-08-19T13:18:37;5.72;;;4.00;;
20758;SDS011;10539;53.686;9.158;2022-08-19T13:21:05;6.22;;;4.38;;
20758;SDS011;10539;53.686;9.158;2022-08-19T13:23:33;6.22;;;4.75;;
20758;SDS011;10539;53.686;9.158;2022-08-19T13:26:03;6.82;;;5.07;;
20758;SDS011;10539;53.686;9.158;2022-08-19T13:28:31;6.05;;;4.57;;
20758;SDS011;10539;53.686;9.158;2022-08-19T13:31:19;5.80;;;4.30;;
20758;SDS011;10539;53.686;9.158;2022-08-19T13:34:05;6.30;;;4.40;;
20758;SDS011;10539;53.686;9.158;2022-08-19T13:36:33;5.43;;;4.22;;
20758;SDS011;10539;53.686;9.158;2022-08-19T13:39:03;4.90;;;4.05;;
20758;SDS011;10539;53.686;9.158;2022-08-19T13:41:33;7.70;;;4.90;;
20758;SDS011;10539;53.686;9.158;2022-08-19T13:43:59;5.35;;;4.50;;
20758;SDS011;10539;53.686;9.158;2022-08-19T13:46:27;6.90;;;4.68;;
20758;SDS011;10539;53.686;9.158;2022-08-19T13:48:55;4.22;;;3.45;;
20758;SDS011;10539;53.686;9.158;2022-08-19T13:51:22;4.53;;;3.15;;
20758;SDS011;10539;53.686;9.158;2022-08-19T13:53:48;5.75;;;3.83;;
20758;SDS011;10539;53.686;9.158;2022-08-19T13:56:16;12.73;;;3.42;;
20758;SDS011;10539;53.686;9.158;2022-08-19T13:58:44;4.35;;;3.10;;
20758;SDS011;10539;53.686;9.158;2022-08-19T14:01:10;4.68;;;3.20;;
20758;SDS011;10539;53.686;9.158;2022-08-19T14:03:36;4.35;;;3.08;;
20758;SDS011;10539;53.686;9.158;2022-08-19T14:06:03;4.65;;;3.00;;
20758;SDS011;10539;53.686;9.158;2022-08-19T14:08:29;3.63;;;2.58;;
20758;SDS011;10539;53.686;9.158;2022-08-19T14:10:57;4.88;;;2.70;;
20758;SDS011;10539;53.686;9.158;2022-08-19T14:13:26;4.55;;;2.70;;
20758;SDS011;10539;53.686;9.158;2022-08-19T14:15:54;3.97;;;2.95;;
20758;SDS011;10539;53.686;9.158;2022-08-19T14:18:20;4.57;;;3.03;;
20758;SDS011;10539;53.686;9.158;2022-08-19T14:20:46;6.30;;;2.95;;
20758;SDS011;10539;53.686;9.158;2022-08-19T14:23:12;3.53;;;3.03;;
20758;SDS011;10539;53.686;9.158;2022-08-19T14:25:38;4.10;;;2.90;;
20758;SDS011;10539;53.686;9.158;2022-08-19T14:28:06;3.42;;;2.70;;
20758;SDS011;10539;53.686;9.158;2022-08-19T14:30:40;3.28;;;2.70;;
20758;SDS011;10539;53.686;9.158;2022-08-19T14:33:06;3.05;;;2.75;;
20758;SDS011;10539;53.686;9.158;2022-08-19T14:35:44;3.38;;;3.00;;
20758;SDS011;10539;53.686;9.158;2022-08-19T14:38:17;4.93;;;3.10;;
20758;SDS011;10539;53.686;9.158;2022-08-19T14:40:46;4.75;;;2.80;;
20758;SDS011;10539;53.686;9.158;2022-08-19T14:43:21;4.50;;;2.70;;
20758;SDS011;10539;53.686;9.158;2022-08-19T14:45:48;3.63;;;2.53;;
20758;SDS011;10539;53.686;9.158;2022-08-19T14:48:19;2.45;;;2.25;;
20758;SDS011;10539;53.686;9.158;2022-08-19T14:50:56;4.68;;;2.40;;
20758;SDS011;10539;53.686;9.158;2022-08-19T14:53:31;5.03;;;2.17;;
20758;SDS011;10539;53.686;9.158;2022-08-19T14:56:13;2.28;;;2.08;;
20758;SDS011;10539;53.686;9.158;2022-08-19T14:58:44;2.95;;;2.00;;
20758;SDS011;10539;53.686;9.158;2022-08-19T15:01:14;3.05;;;1.80;;
20758;SDS011;10539;53.686;9.158;2022-08-19T15:03:40;2.10;;;1.30;;